Time;durP1;ratioP1;P1;durP2;ratioP2;P2;SDS_P1;SDS_P2;PMS_P1;PMS_P2;Temp;Humidity;BMP_temperature;BMP_pressure;BME280_temperature;BME280_humidity;BME280_pressure;Samples;Min_cycle;Max_cycle;Signal;HPM_P1;HPM_P2
2021/08/02 00:00:03;;;;;;;3.15;1.55;;;;;;;14.16;98.90;95625.78;5033142;28;20426;-75
2021/08/02 00:02:36;;;;;;;4.93;1.60;;;;;;;14.09;98.88;95629.88;5032616;28;20427;-75
2021/08/02 00:05:06;;;;;;;1.75;1.60;;;;;;;14.10;98.28;95630.69;5032576;28;20427;-75
2021/08/02 00:07:35;;;;;;;2.90;1.40;;;;;;;13.94;99.05;95631.03;5031051;28;20423;-75
2021/08/02 00:10:07;;;;;;;2.40;1.52;;;;;;;13.78;100.00;95629.63;5024049;28;20429;-75
2021/08/02 00:12:39;;;;;;;2.67;1.60;;;;;;;13.83;100.00;95637.13;5031460;28;20811;-75
2021/08/02 00:15:05;;;;;;;2.67;1.60;;;;;;;13.80;100.00;95630.38;5031006;28;20982;-74
2021/08/02 00:17:31;;;;;;;3.00;1.57;;;;;;;13.96;100.00;95632.59;5032112;28;20426;-75
2021/08/02 00:19:57;;;;;;;3.70;1.65;;;;;;;14.07;99.00;95631.75;5032290;28;20411;-75
2021/08/02 00:22:24;;;;;;;3.00;1.70;;;;;;;14.16;97.96;95632.78;5032166;28;20414;-74
2021/08/02 00:24:50;;;;;;;1.98;1.30;;;;;;;14.17;97.86;95624.03;5032483;28;20411;-75
2021/08/02 00:27:18;;;;;;;2.00;1.42;;;;;;;14.27;96.55;95633.59;5032163;28;20525;-75
2021/08/02 00:29:44;;;;;;;2.70;1.40;;;;;;;14.29;96.33;95636.09;5031246;28;20419;-75
2021/08/02 00:32:10;;;;;;;2.80;1.60;;;;;;;14.21;97.06;95633.28;5032582;28;20510;-75
2021/08/02 00:34:35;;;;;;;2.17;1.23;;;;;;;14.11;97.90;95640.97;5032232;28;20510;-75
2021/08/02 00:37:05;;;;;;;2.23;1.60;;;;;;;14.11;98.71;95637.53;5031826;28;20426;-76
2021/08/02 00:39:44;;;;;;;3.90;1.50;;;;;;;13.99;98.74;95631.53;5032538;28;20497;-75
2021/08/02 00:42:40;;;;;;;2.15;1.30;;;;;;;14.10;98.36;95641.94;5032397;28;20422;-74
2021/08/02 00:45:12;;;;;;;5.90;1.60;;;;;;;14.04;98.54;95650.22;5030913;28;20832;-75
2021/08/02 00:47:43;;;;;;;5.53;1.75;;;;;;;13.99;99.78;95654.97;5033009;28;20410;-75
2021/08/02 00:50:12;;;;;;;1.98;1.48;;;;;;;13.98;99.29;95648.94;5026682;28;20429;-75
2021/08/02 00:52:46;;;;;;;2.75;1.50;;;;;;;13.90;98.90;95647.84;5030178;28;20423;-75
2021/08/02 00:55:13;;;;;;;3.83;1.50;;;;;;;13.96;94.11;95644.78;5031851;28;20421;-75
2021/08/02 00:57:41;;;;;;;2.90;1.50;;;;;;;14.02;94.89;95644.31;5031836;28;20414;-75
2021/08/02 01:00:10;;;;;;;3.45;1.50;;;;;;;14.14;93.58;95650.31;5032045;28;20473;-75
2021/08/02 01:02:38;;;;;;;2.85;1.65;;;;;;;14.10;94.13;95647.13;5031839;28;20797;-75
2021/08/02 01:05:06;;;;;;;2.58;1.42;;;;;;;14.14;94.33;95645.13;5031974;28;20494;-74
2021/08/02 01:07:37;;;;;;;2.35;1.35;;;;;;;14.27;92.09;95641.41;5031876;28;20916;-75
2021/08/02 01:10:02;;;;;;;2.30;1.65;;;;;;;14.36;91.75;95642.47;5031528;28;20465;-75
2021/08/02 01:12:29;;;;;;;2.10;1.23;;;;;;;14.32;92.69;95633.25;5030350;28;20447;-75
2021/08/02 01:14:55;;;;;;;1.98;1.40;;;;;;;14.36;93.39;95633.81;5031767;28;20778;-75
2021/08/02 01:17:22;;;;;;;3.97;1.50;;;;;;;14.44;93.05;95628.81;5030155;28;20433;-75
2021/08/02 01:19:49;;;;;;;3.70;1.50;;;;;;;14.45;92.50;95628.69;5031573;28;20407;-75
2021/08/02 01:22:25;;;;;;;2.75;1.45;;;;;;;14.30;93.95;95629.91;5031156;28;20417;-75
2021/08/02 01:24:51;;;;;;;8.68;1.67;;;;;;;14.35;92.79;95630.41;5030028;28;20427;-76
2021/08/02 01:27:43;;;;;;;1.50;1.20;;;;;;;14.38;93.23;95631.91;5031378;28;20769;-74
2021/08/02 01:30:23;;;;;;;2.40;1.35;;;;;;;14.28;93.39;95632.66;5030384;28;20426;-75
2021/08/02 01:32:50;;;;;;;3.85;1.40;;;;;;;14.33;93.43;95631.47;5031456;28;20442;-75
2021/08/02 01:35:16;;;;;;;2.88;1.30;;;;;;;14.41;93.18;95627.28;5031897;28;20880;-75
2021/08/02 01:37:45;;;;;;;2.20;1.30;;;;;;;14.46;92.65;95625.16;5031323;28;20454;-73
2021/08/02 01:40:11;;;;;;;2.53;1.50;;;;;;;14.60;92.37;95628.44;5031503;28;20932;-74
2021/08/02 01:42:37;;;;;;;1.52;1.20;;;;;;;14.66;92.10;95628.78;5031340;28;20426;-75
2021/08/02 01:45:04;;;;;;;3.30;1.42;;;;;;;14.58;92.92;95632.97;5031140;28;20503;-75
2021/08/02 01:47:37;;;;;;;2.92;1.73;;;;;;;14.49;94.06;95631.88;5031001;28;20778;-75
2021/08/02 01:50:10;;;;;;;3.55;1.50;;;;;;;14.45;94.10;95628.69;5029852;28;20423;-75
2021/08/02 01:52:41;;;;;;;2.80;1.42;;;;;;;14.44;94.71;95628.81;5031048;28;20412;-75
2021/08/02 01:55:13;;;;;;;3.55;1.67;;;;;;;14.50;94.95;95628.38;5029716;28;20422;-74
2021/08/02 01:57:44;;;;;;;1.95;1.30;;;;;;;14.60;94.64;95628.44;5030977;28;20435;-74
2021/08/02 02:00:11;;;;;;;4.03;1.30;;;;;;;14.48;94.36;95632.84;5031001;28;20434;-75
2021/08/02 02:02:38;;;;;;;4.30;1.40;;;;;;;14.48;95.27;95628.44;5030847;28;20738;-75
2021/08/02 02:05:07;;;;;;;1.83;1.40;;;;;;;14.46;94.71;95624.28;5031077;28;20419;-74
2021/08/02 02:07:38;;;;;;;3.63;1.40;;;;;;;14.45;95.27;95630.47;5030858;28;20425;-75
2021/08/02 02:10:05;;;;;;;5.45;1.83;;;;;;;14.35;95.64;95647.78;5030886;28;20431;-75
2021/08/02 02:12:32;;;;;;;3.20;1.60;;;;;;;14.33;95.83;95645.31;5046697;23;20746;-77
2021/08/02 02:14:58;;;;;;;2.22;1.40;;;;;;;14.21;96.76;95643.69;5050524;28;20995;-77
2021/08/02 02:17:26;;;;;;;3.67;1.50;;;;;;;14.06;98.41;95647.50;5051319;28;20405;-77
2021/08/02 02:19:54;;;;;;;11.82;1.77;;;;;;;14.21;97.08;95641.09;5051751;28;20405;-77
2021/08/02 02:22:23;;;;;;;3.30;1.58;;;;;;;14.12;97.89;95647.00;5051288;28;20497;-77
2021/08/02 02:24:50;;;;;;;2.90;1.50;;;;;;;13.99;99.26;95641.94;5051528;28;20452;-77
2021/08/02 02:27:17;;;;;;;2.30;1.42;;;;;;;14.00;98.92;95647.00;5051570;28;20452;-77
2021/08/02 02:29:44;;;;;;;4.43;1.73;;;;;;;13.87;99.55;95646.34;5050344;28;20839;-77
2021/08/02 02:32:10;;;;;;;3.77;1.60;;;;;;;13.86;99.99;95644.66;5050006;28;20980;-77
2021/08/02 02:34:37;;;;;;;5.60;1.73;;;;;;;13.90;100.00;95655.66;5050376;28;20417;-77
2021/08/02 02:37:04;;;;;;;2.83;1.50;;;;;;;14.03;99.88;95651.16;5054932;28;20790;-77
2021/08/02 02:39:30;;;;;;;2.08;1.40;;;;;;;14.07;99.03;95654.34;5055034;28;20405;-77
2021/08/02 02:41:57;;;;;;;3.85;1.50;;;;;;;14.04;98.95;95661.44;5054745;28;20432;-77
2021/08/02 02:44:23;;;;;;;3.40;1.63;;;;;;;13.98;99.53;95648.94;5054782;28;20421;-77
2021/08/02 02:46:50;;;;;;;2.50;1.50;;;;;;;14.07;99.13;95657.78;5054771;28;20416;-77
2021/08/02 02:49:17;;;;;;;2.25;1.70;;;;;;;14.05;99.66;95654.47;5054098;28;20516;-78
2021/08/02 02:51:43;;;;;;;4.27;1.60;;;;;;;14.04;99.12;95658.84;5053886;28;20497;-75
2021/08/02 02:54:09;;;;;;;3.70;1.60;;;;;;;14.03;99.57;95649.38;5053618;28;20490;-76
2021/08/02 02:56:36;;;;;;;3.00;1.58;;;;;;;14.11;99.36;95654.00;5053461;28;20416;-75
2021/08/02 02:59:03;;;;;;;3.17;1.85;;;;;;;14.08;98.81;95664.66;5052607;28;20418;-75
2021/08/02 03:01:35;;;;;;;3.33;1.55;;;;;;;14.08;99.20;95656.00;5052363;28;20417;-76
2021/08/02 03:04:03;;;;;;;2.27;1.27;;;;;;;13.96;99.68;95660.41;5069212;28;20516;-77
2021/08/02 03:06:29;;;;;;;3.90;1.48;;;;;;;13.95;100.00;95656.16;5069813;28;20429;-76
2021/08/02 03:08:56;;;;;;;3.08;1.52;;;;;;;14.09;99.66;95652.44;5070530;28;20418;-78
2021/08/02 03:11:23;;;;;;;2.20;1.45;;;;;;;14.16;99.16;95654.44;5071662;28;20414;-78
2021/08/02 03:13:50;;;;;;;2.17;1.52;;;;;;;14.17;99.51;95655.31;5072105;28;20432;-77
2021/08/02 03:16:16;;;;;;;1.95;1.23;;;;;;;14.23;99.09;95658.22;5072738;28;20401;-77
2021/08/02 03:18:41;;;;;;;2.63;1.47;;;;;;;14.20;98.13;95655.03;5072659;28;20480;-77
2021/08/02 03:21:08;;;;;;;2.10;1.30;;;;;;;14.20;98.32;95661.09;5072686;28;20453;-76
2021/08/02 03:23:39;;;;;;;3.90;1.67;;;;;;;14.22;98.25;95660.97;5075248;28;20508;-76
2021/08/02 03:26:10;;;;;;;2.03;1.48;;;;;;;14.25;98.21;95661.56;5075810;28;20413;-75
2021/08/02 03:28:43;;;;;;;1.85;1.30;;;;;;;14.21;98.37;95667.94;5074750;28;20401;-78
2021/08/02 03:31:17;;;;;;;5.13;1.73;;;;;;;13.99;99.06;95663.59;5074798;28;20409;-77
2021/08/02 03:34:22;;;;;;;2.17;1.33;;;;;;;13.98;99.95;95672.38;5076314;28;20429;-75
2021/08/02 03:37:13;;;;;;;2.03;1.30;;;;;;;13.84;100.00;95674.38;5066805;28;20429;-76
2021/08/02 03:39:42;;;;;;;3.10;1.60;;;;;;;13.75;100.00;95675.91;5076318;28;20443;-78
2021/08/02 03:42:11;;;;;;;3.50;1.42;;;;;;;13.91;100.00;95680.78;5076958;28;20463;-77
2021/08/02 03:44:44;;;;;;;3.28;1.42;;;;;;;13.87;100.00;95684.53;5076491;28;20429;-76
2021/08/02 03:47:09;;;;;;;1.95;1.38;;;;;;;13.75;100.00;95681.09;5077161;28;20417;-76
2021/08/02 03:49:35;;;;;;;4.83;1.70;;;;;;;13.73;100.00;95680.41;5077905;28;20495;-75
2021/08/02 03:52:02;;;;;;;2.17;1.37;;;;;;;13.76;100.00;95686.22;5078534;28;20468;-75
2021/08/02 03:54:30;;;;;;;2.95;1.60;;;;;;;13.69;100.00;95687.63;5074592;28;20429;-78
2021/08/02 03:56:57;;;;;;;1.92;1.30;;;;;;;13.68;100.00;95690.31;5068896;28;20413;-78
2021/08/02 03:59:23;;;;;;;3.63;1.40;;;;;;;13.69;100.00;95690.22;5070644;28;20425;-76
2021/08/02 04:01:49;;;;;;;5.38;1.65;;;;;;;13.67;100.00;95692.09;5070063;28;20428;-77
2021/08/02 04:04:15;;;;;;;4.55;1.60;;;;;;;13.68;100.00;95692.94;5069570;28;20425;-78
2021/08/02 04:06:40;;;;;;;2.78;1.60;;;;;;;13.72;100.00;95697.81;5072576;28;20417;-77
2021/08/02 04:09:11;;;;;;;3.25;1.52;;;;;;;13.73;100.00;95694.25;5076340;28;20459;-75
2021/08/02 04:11:39;;;;;;;3.17;1.58;;;;;;;13.64;100.00;95694.94;5070181;28;20417;-77
2021/08/02 04:14:06;;;;;;;3.35;1.52;;;;;;;13.63;100.00;95702.88;5069399;28;20430;-78
2021/08/02 04:16:32;;;;;;;2.08;1.50;;;;;;;13.62;100.00;95702.03;5068486;28;20429;-77
2021/08/02 04:18:57;;;;;;;2.77;1.50;;;;;;;13.64;100.00;95707.13;5066947;28;20520;-77
2021/08/02 04:21:22;;;;;;;2.67;1.60;;;;;;;13.61;100.00;95707.34;5066471;28;20425;-77
2021/08/02 04:23:48;;;;;;;4.93;1.60;;;;;;;13.60;100.00;95705.69;5068599;28;20428;-77
2021/08/02 04:26:14;;;;;;;1.88;1.42;;;;;;;13.62;100.00;95711.63;5065373;28;20443;-77
2021/08/02 04:28:44;;;;;;;2.70;1.60;;;;;;;13.80;100.00;95710.22;5058419;28;20428;-77
2021/08/02 04:31:10;;;;;;;3.30;1.73;;;;;;;13.90;100.00;95716.38;5065176;28;20433;-78
2021/08/02 04:33:36;;;;;;;3.22;1.70;;;;;;;13.73;100.00;95719.44;5064495;28;20448;-78
2021/08/02 04:36:01;;;;;;;3.13;1.60;;;;;;;13.71;100.00;95726.53;5063619;28;20401;-78
2021/08/02 04:38:27;;;;;;;5.72;1.50;;;;;;;13.70;100.00;95717.91;5063607;28;20783;-77
2021/08/02 04:40:53;;;;;;;3.83;1.35;;;;;;;13.73;100.00;95720.28;5062064;28;20425;-77
2021/08/02 04:43:19;;;;;;;3.47;1.70;;;;;;;13.75;100.00;95726.19;5066457;28;20423;-77
2021/08/02 04:45:45;;;;;;;3.03;1.43;;;;;;;13.84;100.00;95724.66;5062821;28;20502;-78
2021/08/02 04:48:11;;;;;;;3.33;1.50;;;;;;;13.71;100.00;95737.75;5061026;28;20512;-76
2021/08/02 04:50:38;;;;;;;3.77;1.67;;;;;;;13.69;100.00;95733.66;5061182;28;20421;-77
2021/08/02 04:53:03;;;;;;;3.38;1.83;;;;;;;13.52;100.00;95733.13;5061215;28;20421;-76
2021/08/02 04:55:29;;;;;;;3.47;1.37;;;;;;;13.68;100.00;95731.97;5060830;28;20422;-77
2021/08/02 04:57:54;;;;;;;3.10;1.70;;;;;;;13.62;100.00;95724.63;5054954;28;20765;-76
2021/08/02 05:00:19;;;;;;;2.30;1.50;;;;;;;13.66;100.00;95726.06;5048417;28;20421;-75
2021/08/02 05:02:46;;;;;;;2.47;1.60;;;;;;;13.68;100.00;95726.75;5057943;28;20441;-74
2021/08/02 05:05:12;;;;;;;2.40;1.35;;;;;;;13.72;100.00;95726.44;5050450;28;20455;-73
2021/08/02 05:07:37;;;;;;;2.13;1.37;;;;;;;13.76;100.00;95729.63;5051157;28;20440;-75
2021/08/02 05:10:04;;;;;;;5.50;1.50;;;;;;;13.63;100.00;95729.72;5050448;28;20487;-75
2021/08/02 05:12:29;;;;;;;4.43;1.40;;;;;;;13.70;100.00;95730.91;5051403;28;20424;-75
2021/08/02 05:14:55;;;;;;;2.93;1.60;;;;;;;13.68;100.00;95729.38;5051927;28;20408;-73
2021/08/02 05:17:20;;;;;;;2.58;1.27;;;;;;;13.71;100.00;95727.34;5051091;28;20492;-74
2021/08/02 05:19:47;;;;;;;2.23;1.50;;;;;;;13.71;100.00;95735.16;5049542;28;20935;-73
2021/08/02 05:22:12;;;;;;;5.00;1.90;;;;;;;13.66;100.00;95734.69;5049813;28;20500;-75
2021/08/02 05:24:38;;;;;;;3.73;1.57;;;;;;;13.72;100.00;95734.25;5051413;28;20847;-75
2021/08/02 05:27:03;;;;;;;5.77;1.57;;;;;;;13.75;100.00;95738.38;5051097;28;20416;-74
2021/08/02 05:29:29;;;;;;;4.03;1.40;;;;;;;13.79;100.00;95739.78;5064382;28;20437;-76
2021/08/02 05:31:54;;;;;;;5.20;1.40;;;;;;;13.87;100.00;95741.81;5071719;28;20958;-75
2021/08/02 05:34:20;;;;;;;2.10;1.50;;;;;;;13.88;100.00;95748.69;5072211;28;20408;-78
2021/08/02 05:36:47;;;;;;;3.90;1.40;;;;;;;13.90;100.00;95745.00;5071475;28;20407;-78
2021/08/02 05:39:12;;;;;;;3.13;1.30;;;;;;;13.81;100.00;95745.72;5070834;28;20399;-75
2021/08/02 05:41:37;;;;;;;2.07;1.20;;;;;;;13.87;100.00;95741.81;5051439;28;20417;-76
2021/08/02 05:44:04;;;;;;;3.43;1.50;;;;;;;13.82;100.00;95742.16;5042670;28;20459;-76
2021/08/02 05:46:29;;;;;;;6.18;1.70;;;;;;;13.88;100.00;95741.69;5050885;28;20417;-76
2021/08/02 05:48:55;;;;;;;3.50;1.77;;;;;;;13.86;100.00;95746.19;5050933;28;20432;-77
2021/08/02 05:51:20;;;;;;;3.08;1.50;;;;;;;14.00;100.00;95748.56;5049559;28;20520;-76
2021/08/02 05:53:47;;;;;;;2.45;1.33;;;;;;;14.18;100.00;95740.28;5049597;28;20953;-76
2021/08/02 05:56:12;;;;;;;2.72;1.30;;;;;;;14.12;100.00;95751.19;5050409;28;20504;-77
2021/08/02 05:58:38;;;;;;;2.10;1.30;;;;;;;14.04;100.00;95744.78;5049493;28;20860;-76
2021/08/02 06:01:03;;;;;;;2.73;1.33;;;;;;;14.09;100.00;95752.25;5049885;28;20413;-76
2021/08/02 06:03:29;;;;;;;3.70;1.30;;;;;;;13.96;100.00;95751.53;5039212;28;20428;-76
2021/08/02 06:05:54;;;;;;;2.47;1.20;;;;;;;14.11;100.00;95755.56;5044347;28;20417;-76
2021/08/02 06:08:20;;;;;;;2.13;1.33;;;;;;;14.16;100.00;95763.84;5049285;28;20432;-76
2021/08/02 06:10:46;;;;;;;2.13;1.30;;;;;;;14.31;99.21;95764.44;5048274;28;20465;-76
2021/08/02 06:13:12;;;;;;;2.17;1.33;;;;;;;14.41;98.97;95767.16;5053145;28;20922;-76
2021/08/02 06:15:37;;;;;;;2.43;1.40;;;;;;;14.46;98.09;95767.63;5052963;28;20501;-76
2021/08/02 06:18:03;;;;;;;2.90;1.37;;;;;;;14.36;97.99;95764.91;5049645;28;20432;-75
2021/08/02 06:20:29;;;;;;;3.83;1.50;;;;;;;14.48;97.90;95763.13;5056201;28;20425;-77
2021/08/02 06:22:54;;;;;;;2.20;1.23;;;;;;;14.58;97.05;95766.72;5054891;28;20417;-76
2021/08/02 06:25:19;;;;;;;1.60;1.20;;;;;;;14.59;95.62;95763.13;5053141;28;20425;-74
2021/08/02 06:27:46;;;;;;;2.40;1.20;;;;;;;14.61;96.53;95763.88;5056121;28;20409;-77
2021/08/02 06:30:12;;;;;;;2.90;1.40;;;;;;;14.58;95.88;95771.91;5053914;28;20425;-75
2021/08/02 06:32:37;;;;;;;5.32;1.30;;;;;;;14.63;96.37;95780.19;5048993;28;20719;-77
2021/08/02 06:35:03;;;;;;;2.30;1.33;;;;;;;14.76;95.10;95765.25;5053842;28;20420;-76
2021/08/02 06:37:29;;;;;;;2.15;1.40;;;;;;;14.85;95.81;95771.50;5054043;28;20848;-76
2021/08/02 06:39:54;;;;;;;4.80;1.20;;;;;;;14.97;94.41;95765.28;5053958;28;20409;-77
2021/08/02 06:42:20;;;;;;;1.90;1.20;;;;;;;15.09;94.07;95766.13;5054143;28;20505;-75
2021/08/02 06:44:47;;;;;;;3.47;1.70;;;;;;;15.08;93.38;95771.44;5054169;28;20416;-74
2021/08/02 06:47:12;;;;;;;1.70;1.20;;;;;;;15.10;93.45;95777.38;5053983;28;20782;-76
2021/08/02 06:49:37;;;;;;;2.90;1.30;;;;;;;15.19;92.49;95769.59;5052733;28;20754;-75
2021/08/02 06:52:04;;;;;;;5.47;1.35;;;;;;;15.22;92.49;95768.53;5063914;28;20426;-76
2021/08/02 06:54:29;;;;;;;2.25;1.30;;;;;;;15.29;92.87;95763.66;5066388;28;20453;-75
2021/08/02 06:56:55;;;;;;;3.03;1.40;;;;;;;15.42;92.54;95772.94;5053913;28;20442;-75
2021/08/02 06:59:20;;;;;;;2.60;1.30;;;;;;;15.53;92.31;95769.44;5065714;28;20462;-77
2021/08/02 07:01:47;;;;;;;2.13;1.30;;;;;;;15.52;90.95;95762.59;5073823;28;20751;-77
2021/08/02 07:04:13;;;;;;;2.70;1.58;;;;;;;15.47;90.28;95773.41;5072586;28;20822;-76
2021/08/02 07:06:41;;;;;;;2.75;1.40;;;;;;;15.68;91.14;95772.63;5073335;28;20420;-75
2021/08/02 07:09:07;;;;;;;2.58;1.48;;;;;;;15.89;90.79;95775.22;5073129;28;20458;-76
2021/08/02 07:11:32;;;;;;;2.47;1.33;;;;;;;15.96;89.80;95778.97;5073813;28;20431;-75
2021/08/02 07:13:58;;;;;;;2.20;1.20;;;;;;;16.02;88.60;95778.47;5073472;28;20445;-75
2021/08/02 07:16:23;;;;;;;2.90;1.23;;;;;;;16.11;88.92;95780.28;5071949;28;20436;-74
2021/08/02 07:18:52;;;;;;;2.30;1.30;;;;;;;16.21;89.00;95783.78;5072235;28;20477;-74
2021/08/02 07:21:18;;;;;;;3.33;1.42;;;;;;;16.26;87.61;95787.78;5073025;28;20465;-74
2021/08/02 07:23:43;;;;;;;2.40;1.23;;;;;;;16.29;85.46;95787.53;5072311;28;20948;-74
2021/08/02 07:26:09;;;;;;;1.88;1.23;;;;;;;16.37;85.83;95787.72;5071770;28;20419;-75
2021/08/02 07:28:34;;;;;;;1.63;1.03;;;;;;;16.52;85.25;95796.84;5072837;28;20407;-75
2021/08/02 07:31:00;;;;;;;3.23;1.47;;;;;;;16.37;84.76;95795.53;5071910;28;20507;-74
2021/08/02 07:33:25;;;;;;;5.30;1.40;;;;;;;16.40;84.54;95797.91;5073176;28;20404;-75
2021/08/02 07:35:52;;;;;;;3.38;1.52;;;;;;;16.54;84.84;95797.56;5043292;28;20440;-75
2021/08/02 07:38:17;;;;;;;2.85;1.38;;;;;;;16.58;85.81;95798.13;5051899;28;20829;-74
2021/08/02 07:40:43;;;;;;;3.50;1.10;;;;;;;16.67;85.92;95799.91;5050858;28;20421;-75
2021/08/02 07:43:08;;;;;;;2.90;1.17;;;;;;;16.82;87.02;95789.94;5053427;28;20417;-75
2021/08/02 07:45:35;;;;;;;2.35;1.30;;;;;;;16.79;84.12;95796.25;5052792;28;20417;-77
2021/08/02 07:48:00;;;;;;;2.58;1.25;;;;;;;16.81;85.04;95786.50;5052858;28;20449;-75
2021/08/02 07:50:26;;;;;;;3.10;1.40;;;;;;;16.94;84.69;95791.47;5051739;28;20437;-76
2021/08/02 07:52:53;;;;;;;2.10;1.30;;;;;;;17.18;83.16;95789.31;5052965;28;20801;-76
2021/08/02 07:55:20;;;;;;;1.33;0.95;;;;;;;17.15;80.56;95794.81;5051559;28;20422;-76
2021/08/02 07:57:45;;;;;;;2.30;1.20;;;;;;;17.26;81.21;95788.63;5051677;28;20945;-75
2021/08/02 08:00:12;;;;;;;2.60;1.40;;;;;;;17.33;82.29;95794.97;5070211;28;20420;-75
2021/08/02 08:02:38;;;;;;;2.97;1.35;;;;;;;17.43;80.42;95784.53;5071371;28;20412;-75
2021/08/02 08:05:03;;;;;;;2.85;1.38;;;;;;;17.39;80.00;95777.88;5072778;28;20434;-75
2021/08/02 08:07:29;;;;;;;2.43;1.47;;;;;;;17.56;81.66;95779.81;5066690;28;20421;-74
2021/08/02 08:10:00;;;;;;;2.43;1.10;;;;;;;17.49;79.58;95773.47;5052394;28;20487;-75
2021/08/02 08:12:26;;;;;;;1.83;1.20;;;;;;;17.73;79.44;95772.25;5052579;28;20406;-76
2021/08/02 08:14:51;;;;;;;2.00;1.43;;;;;;;17.72;76.11;95779.25;5034327;23;20454;-75
2021/08/02 08:17:16;;;;;;;2.00;1.13;;;;;;;17.81;75.90;95780.25;5032238;28;20411;-75
2021/08/02 08:19:42;;;;;;;2.75;1.20;;;;;;;17.68;76.40;95780.50;5032726;28;20473;-75
2021/08/02 08:22:07;;;;;;;2.50;1.10;;;;;;;17.52;74.62;95778.44;5032733;28;20908;-76
2021/08/02 08:24:33;;;;;;;1.67;1.10;;;;;;;17.38;75.86;95768.38;5014977;28;20974;-76
2021/08/02 08:26:59;;;;;;;4.80;1.30;;;;;;;17.49;75.67;95780.50;5014637;28;20441;-76
2021/08/02 08:29:26;;;;;;;3.20;1.20;;;;;;;17.64;75.97;95779.94;5019764;28;20532;-76
2021/08/02 08:31:51;;;;;;;2.45;1.20;;;;;;;17.85;74.95;95779.00;5012288;28;20496;-76
2021/08/02 08:34:16;;;;;;;2.97;1.38;;;;;;;18.01;73.75;95781.03;5012697;28;20500;-76
2021/08/02 08:36:42;;;;;;;1.33;1.20;;;;;;;18.18;74.44;95782.91;4995000;28;20885;-76
2021/08/02 08:39:07;;;;;;;4.93;1.10;;;;;;;18.28;70.43;95777.63;5012514;28;20408;-74
2021/08/02 08:41:33;;;;;;;3.25;1.20;;;;;;;18.05;68.39;95782.38;5012523;28;20423;-75
2021/08/02 08:44:00;;;;;;;2.53;1.00;;;;;;;18.05;68.83;95787.63;5012069;28;20420;-76
2021/08/02 08:46:25;;;;;;;1.57;1.00;;;;;;;18.30;69.01;95781.75;5011603;28;20588;-75
2021/08/02 08:48:51;;;;;;;2.30;1.10;;;;;;;18.59;68.30;95781.66;5012272;28;20536;-75
2021/08/02 08:51:16;;;;;;;2.13;1.20;;;;;;;18.92;67.25;95786.50;4994529;28;20459;-74
2021/08/02 08:53:43;;;;;;;2.08;1.15;;;;;;;19.44;65.27;95784.06;5012136;28;20408;-76
2021/08/02 08:56:09;;;;;;;2.03;1.02;;;;;;;19.72;63.50;95779.56;5012119;28;20439;-75
2021/08/02 08:58:34;;;;;;;2.03;1.13;;;;;;;19.53;61.46;95770.81;5007349;28;20413;-75
2021/08/02 09:01:02;;;;;;;2.00;1.00;;;;;;;19.96;63.10;95779.75;5011780;28;20436;-76
2021/08/02 09:03:29;;;;;;;2.13;0.90;;;;;;;19.56;61.71;95765.28;4994215;28;20490;-76
2021/08/02 09:06:00;;;;;;;3.78;1.10;;;;;;;19.29;60.67;95770.63;4993981;28;20949;-77
2021/08/02 09:08:26;;;;;;;2.60;1.20;;;;;;;19.09;61.92;95770.75;5011156;28;20428;-76
2021/08/02 09:10:56;;;;;;;1.73;0.80;;;;;;;18.75;63.58;95781.03;5011788;28;20462;-76
2021/08/02 09:13:29;;;;;;;2.00;1.10;;;;;;;18.69;63.81;95775.50;5011776;28;20471;-77
2021/08/02 09:15:56;;;;;;;1.27;0.90;;;;;;;18.43;65.52;95781.47;4993757;28;20945;-76
2021/08/02 09:18:24;;;;;;;2.00;1.00;;;;;;;18.26;66.11;95775.16;5011991;28;20977;-77
2021/08/02 09:20:58;;;;;;;1.73;1.20;;;;;;;18.19;67.04;95778.50;5011804;28;20417;-77
2021/08/02 09:23:24;;;;;;;2.10;1.08;;;;;;;18.00;65.75;95782.81;4994197;28;20515;-76
2021/08/02 09:25:51;;;;;;;0.90;0.80;;;;;;;18.09;64.81;95783.75;5011564;28;20492;-76
2021/08/02 09:28:19;;;;;;;1.65;1.00;;;;;;;17.92;64.97;95782.72;5014433;28;21011;-77
2021/08/02 09:30:56;;;;;;;1.63;1.00;;;;;;;17.92;66.19;95782.72;5013395;28;20645;-77
2021/08/02 09:33:24;;;;;;;2.15;1.10;;;;;;;17.86;66.21;95781.47;5014048;28;20425;-76
2021/08/02 09:35:51;;;;;;;1.75;0.95;;;;;;;17.96;66.39;95778.00;5031082;28;20484;-76
2021/08/02 09:38:20;;;;;;;2.17;1.02;;;;;;;18.01;64.92;95773.16;5030105;28;20423;-76
2021/08/02 09:40:47;;;;;;;4.28;1.20;;;;;;;17.91;68.87;95775.81;5027770;28;20426;-76
2021/08/02 09:43:14;;;;;;;1.15;0.90;;;;;;;17.92;73.69;95772.22;5031529;28;20442;-76
2021/08/02 09:45:41;;;;;;;2.30;0.90;;;;;;;17.83;71.51;95773.06;5036702;28;20415;-76
2021/08/02 09:48:07;;;;;;;2.67;1.20;;;;;;;17.55;73.64;95779.97;5035824;28;20473;-76
2021/08/02 09:50:34;;;;;;;2.23;1.20;;;;;;;17.38;74.86;95771.81;5025709;28;20455;-76
2021/08/02 09:52:59;;;;;;;2.50;1.35;;;;;;;17.38;79.85;95768.38;5031265;28;20415;-77
2021/08/02 09:55:25;;;;;;;2.08;1.20;;;;;;;17.44;82.93;95770.47;5013210;28;20427;-77
2021/08/02 09:57:52;;;;;;;2.20;1.42;;;;;;;17.48;81.67;95773.63;5031304;28;20414;-75
2021/08/02 10:00:18;;;;;;;3.47;1.02;;;;;;;17.51;81.32;95768.13;5030301;28;20419;-76
2021/08/02 10:02:45;;;;;;;1.23;1.10;;;;;;;17.58;83.16;95770.03;5013241;28;20411;-76
2021/08/02 10:05:11;;;;;;;2.13;1.25;;;;;;;17.53;82.00;95777.47;5030708;28;20515;-76
2021/08/02 10:07:37;;;;;;;1.83;1.33;;;;;;;17.59;83.83;95773.47;5031043;28;20859;-77
2021/08/02 10:10:05;;;;;;;3.10;1.33;;;;;;;17.10;83.76;95780.50;5012192;28;20419;-77
2021/08/02 10:12:38;;;;;;;2.60;1.10;;;;;;;16.96;83.54;95771.25;5030902;28;20526;-77
2021/08/02 10:15:05;;;;;;;1.55;1.20;;;;;;;16.85;85.40;95776.59;5030922;28;20415;-76
2021/08/02 10:17:31;;;;;;;3.60;1.10;;;;;;;16.75;85.46;95766.09;5030729;28;20411;-77
2021/08/02 10:19:56;;;;;;;2.63;1.10;;;;;;;16.86;84.16;95757.31;5031355;28;20411;-77
2021/08/02 10:22:22;;;;;;;1.77;1.00;;;;;;;17.18;84.33;95757.09;5030710;28;20411;-77
2021/08/02 10:24:51;;;;;;;1.80;1.00;;;;;;;17.95;86.46;95760.63;5030936;28;20418;-77
2021/08/02 10:27:25;;;;;;;1.88;0.93;;;;;;;18.37;81.09;95758.44;5030770;28;20419;-76
2021/08/02 10:29:50;;;;;;;1.20;1.02;;;;;;;18.75;84.82;95757.44;5013069;28;20459;-77
2021/08/02 10:32:20;;;;;;;1.90;1.30;;;;;;;18.69;81.10;95749.28;5010326;28;20553;-76
2021/08/02 10:34:49;;;;;;;1.83;1.27;;;;;;;18.45;81.90;95749.84;5017319;28;20471;-76
2021/08/02 10:37:14;;;;;;;2.05;1.25;;;;;;;18.18;81.86;95753.25;5027440;28;20951;-77
2021/08/02 10:39:39;;;;;;;1.83;1.17;;;;;;;18.03;81.46;95753.72;5030534;28;20415;-77
2021/08/02 10:42:12;;;;;;;3.83;1.10;;;;;;;17.83;81.41;95757.34;5021416;28;20540;-80
2021/08/02 10:44:38;;;;;;;1.70;1.02;;;;;;;17.90;83.60;95753.19;5030143;28;20434;-76
2021/08/02 10:47:05;;;;;;;1.48;1.10;;;;;;;17.82;84.34;95759.13;5001140;28;20416;-75
2021/08/02 10:49:31;;;;;;;1.75;1.10;;;;;;;17.64;83.59;95756.38;5011026;28;20858;-76
2021/08/02 10:51:57;;;;;;;3.30;1.52;;;;;;;17.06;88.35;95759.03;4993641;28;20452;-75
2021/08/02 10:54:24;;;;;;;4.43;1.65;;;;;;;16.86;87.02;95766.00;5011021;28;20425;-75
2021/08/02 10:56:51;;;;;;;2.50;1.20;;;;;;;17.03;88.24;95759.28;5022995;28;20419;-75
2021/08/02 10:59:19;;;;;;;3.70;1.10;;;;;;;17.15;87.75;95752.13;5008328;28;20421;-76
2021/08/02 11:01:46;;;;;;;1.57;1.20;;;;;;;17.35;83.54;95752.94;5033898;28;20442;-75
2021/08/02 11:04:13;;;;;;;1.30;1.10;;;;;;;17.79;84.61;95754.16;5034188;28;20920;-76
2021/08/02 11:06:39;;;;;;;1.88;0.95;;;;;;;17.80;82.56;95747.16;5033358;28;20900;-76
2021/08/02 11:09:04;;;;;;;2.00;1.20;;;;;;;17.65;83.75;95749.38;5033833;28;20477;-75
2021/08/02 11:11:31;;;;;;;3.25;1.15;;;;;;;17.66;83.01;95753.63;5030499;28;20439;-76
2021/08/02 11:14:05;;;;;;;1.93;1.20;;;;;;;17.58;81.26;95743.84;5029975;28;20465;-75
2021/08/02 11:16:39;;;;;;;2.08;1.20;;;;;;;17.72;82.25;95741.75;5033721;28;20421;-75
2021/08/02 11:19:13;;;;;;;1.92;1.00;;;;;;;17.82;79.14;95743.41;5033870;28;20474;-74
2021/08/02 11:21:39;;;;;;;1.73;1.08;;;;;;;18.04;82.62;95746.69;5033278;28;20521;-75
2021/08/02 11:24:07;;;;;;;4.47;0.98;;;;;;;17.90;78.47;95740.91;5033519;28;20503;-75
2021/08/02 11:26:32;;;;;;;3.53;1.25;;;;;;;17.88;79.87;95740.25;5033321;28;20421;-75
2021/08/02 11:28:59;;;;;;;1.77;1.30;;;;;;;18.11;82.66;95742.53;5024197;28;20427;-75
2021/08/02 11:31:25;;;;;;;1.70;1.20;;;;;;;18.11;81.93;95745.97;5022756;28;20780;-75